TimeEDT,TemperatureF,Dew PointF,Humidity,Sea Level PressureIn,VisibilityMPH,Wind Direction,Wind SpeedMPH,Gust SpeedMPH,PrecipitationIn,Events,Conditions,WindDirDegrees,DateUTC
12:53 AM,61.0,51.1,70,29.90,10.0,East,10.4,-,N/A,,Mostly Cloudy,80,2013-06-08 04:53:00
1:53 AM,59.0,51.1,75,29.89,10.0,SE,4.6,-,N/A,,Mostly Cloudy,140,2013-06-08 05:53:00
2:53 AM,59.0,51.1,75,29.89,10.0,Calm,Calm,-,N/A,,Scattered Clouds,0,2013-06-08 06:53:00
3:53 AM,59.0,52.0,78,29.89,10.0,NE,3.5,-,N/A,,Overcast,40,2013-06-08 07:53:00
4:53 AM,57.0,52.0,83,29.91,9.0,Calm,Calm,-,N/A,,Mostly Cloudy,0,2013-06-08 08:53:00
5:53 AM,57.0,53.1,87,29.93,8.0,Calm,Calm,-,N/A,,Overcast,0,2013-06-08 09:53:00
6:53 AM,57.0,53.1,87,29.94,6.0,East,3.5,-,N/A,,Mostly Cloudy,90,2013-06-08 10:53:00
7:53 AM,60.1,53.1,78,29.95,3.0,SE,4.6,-,N/A,,Haze,130,2013-06-08 11:53:00
8:53 AM,63.0,52.0,67,29.96,7.0,ESE,5.8,-,N/A,,Scattered Clouds,120,2013-06-08 12:53:00
9:53 AM,64.9,51.1,61,29.98,10.0,SE,4.6,-,N/A,,Scattered Clouds,140,2013-06-08 13:53:00
10:53 AM,66.0,51.1,59,29.98,10.0,South,5.8,-,N/A,,Overcast,180,2013-06-08 14:53:00
11:53 AM,70.0,51.1,51,29.98,10.0,ESE,9.2,-,N/A,,Scattered Clouds,120,2013-06-08 15:53:00
12:53 PM,71.1,52.0,51,29.98,10.0,SSE,4.6,-,N/A,,Mostly Cloudy,160,2013-06-08 16:53:00
1:53 PM,73.0,53.1,49,29.98,10.0,SSE,6.9,-,N/A,,Clear,160,2013-06-08 17:53:00
2:53 PM,73.9,53.1,48,29.97,10.0,South,6.9,-,N/A,,Mostly Cloudy,190,2013-06-08 18:53:00
3:53 PM,73.9,55.9,53,29.96,10.0,South,5.8,-,N/A,,Scattered Clouds,170,2013-06-08 19:53:00
4:53 PM,75.9,55.9,50,29.95,10.0,SE,9.2,-,N/A,,Partly Cloudy,140,2013-06-08 20:53:00
5:53 PM,75.9,54.0,46,29.96,10.0,SE,9.2,-,N/A,,Partly Cloudy,130,2013-06-08 21:53:00
6:53 PM,75.9,54.0,46,29.96,10.0,SSE,4.6,-,N/A,,Mostly Cloudy,150,2013-06-08 22:53:00
7:53 PM,73.9,55.0,52,29.97,10.0,SSE,5.8,-,N/A,,Overcast,150,2013-06-08 23:53:00
8:53 PM,73.0,55.9,55,29.99,10.0,SSE,6.9,-,N/A,,Overcast,160,2013-06-09 00:53:00
9:53 PM,70.0,57.9,65,29.99,9.0,SSE,4.6,-,N/A,,Clear,150,2013-06-09 01:53:00
10:53 PM,68.0,57.9,70,30.02,8.0,SSE,5.8,-,N/A,,Clear,160,2013-06-09 02:53:00
11:53 PM,68.0,59.0,73,30.02,8.0,SSE,4.6,-,N/A,,Overcast,160,2013-06-09 03:53:00